Time;durP1;ratioP1;P1;durP2;ratioP2;P2;SDS_P1;SDS_P2;PMS_P1;PMS_P2;Temp;Humidity;BMP_temperature;BMP_pressure;BME280_temperature;BME280_humidity;BME280_pressure;Samples;Min_cycle;Max_cycle;Signal;HPM_P1;HPM_P2
2022/05/21 00:01:42;;;;;;;2.07;1.80;;;19.50;98.00;;;;;;5051706;28;20595;-68
2022/05/21 00:04:09;;;;;;;1.60;1.43;;;19.40;98.00;;;;;;5051707;28;20465;-68
2022/05/21 00:06:36;;;;;;;3.10;1.60;;;19.40;98.00;;;;;;5033758;28;20473;-66
2022/05/21 00:09:05;;;;;;;1.90;1.83;;;19.30;98.00;;;;;;5051874;28;20853;-66
2022/05/21 00:11:32;;;;;;;2.03;1.50;;;19.30;98.00;;;;;;5051550;28;20512;-66
2022/05/21 00:13:59;;;;;;;1.93;1.60;;;19.30;98.00;;;;;;5051515;28;20516;-66
2022/05/21 00:16:27;;;;;;;2.17;1.83;;;19.40;98.00;;;;;;5051375;28;20461;-66
2022/05/21 00:18:56;;;;;;;2.80;1.77;;;19.30;98.00;;;;;;5051455;28;20453;-66
2022/05/21 00:21:24;;;;;;;2.27;1.80;;;19.30;98.00;;;;;;5052351;28;20454;-66
2022/05/21 00:23:51;;;;;;;2.00;1.60;;;19.30;98.00;;;;;;5055371;28;20489;-66
2022/05/21 00:26:19;;;;;;;2.33;1.70;;;19.30;98.00;;;;;;5055201;28;20461;-66
2022/05/21 00:28:47;;;;;;;1.77;1.63;;;19.30;98.00;;;;;;5055296;28;20453;-66
2022/05/21 00:31:16;;;;;;;2.73;1.93;;;19.20;98.00;;;;;;5055113;28;20465;-66
2022/05/21 00:33:46;;;;;;;1.73;1.70;;;19.10;98.00;;;;;;5055258;28;20464;-66
2022/05/21 00:36:14;;;;;;;2.10;1.47;;;19.00;98.00;;;;;;5055215;28;20469;-66
2022/05/21 00:38:42;;;;;;;2.27;2.07;;;19.10;98.00;;;;;;5055084;28;20809;-66
2022/05/21 00:41:12;;;;;;;2.70;1.90;;;19.10;98.00;;;;;;5055200;28;20460;-67
2022/05/21 00:43:44;;;;;;;1.50;1.50;;;19.10;98.00;;;;;;5055162;28;20818;-67
2022/05/21 00:46:14;;;;;;;1.77;1.60;;;19.00;98.00;;;;;;5054954;28;20454;-66
2022/05/21 00:48:42;;;;;;;2.07;1.60;;;19.10;98.00;;;;;;5055055;28;20507;-66
2022/05/21 00:51:15;;;;;;;2.90;1.60;;;18.90;98.00;;;;;;5055045;28;20450;-66
2022/05/21 00:53:44;;;;;;;1.90;1.73;;;18.90;98.00;;;;;;5055036;28;20864;-66
2022/05/21 00:56:12;;;;;;;2.30;1.73;;;18.80;98.00;;;;;;5054987;28;20515;-66
2022/05/21 01:01:29;;;;;;;2.00;1.47;;;18.70;98.00;;;;;;5054505;28;20576;-66
2022/05/21 01:03:56;;;;;;;2.50;1.97;;;18.60;98.00;;;;;;5054879;28;20456;-66
2022/05/21 01:06:25;;;;;;;1.93;1.57;;;18.50;98.00;;;;;;5054419;28;20452;-66
2022/05/21 01:08:52;;;;;;;2.53;1.43;;;18.60;98.00;;;;;;5054153;28;20966;-66
2022/05/21 01:11:20;;;;;;;1.77;1.60;;;18.50;98.00;;;;;;5054500;28;20553;-65
2022/05/21 01:13:51;;;;;;;1.60;1.30;;;18.50;98.00;;;;;;5054334;28;20537;-66
2022/05/21 01:16:18;;;;;;;2.67;1.57;;;18.50;98.00;;;;;;5054132;28;20952;-66
2022/05/21 01:18:45;;;;;;;1.70;1.40;;;18.50;98.00;;;;;;5036398;28;20955;-66
2022/05/21 01:21:13;;;;;;;1.80;1.30;;;18.40;98.00;;;;;;5054399;28;20867;-66
2022/05/21 01:23:41;;;;;;;1.60;1.57;;;18.30;98.00;;;;;;5054085;28;20446;-66
2022/05/21 01:26:14;;;;;;;1.80;1.40;;;18.30;98.00;;;;;;5054251;28;20981;-66
2022/05/21 01:28:41;;;;;;;2.80;1.73;;;18.20;98.00;;;;;;5054344;28;20493;-68
2022/05/21 01:31:09;;;;;;;2.43;1.80;;;18.10;98.00;;;;;;5054299;28;20574;-69
2022/05/21 01:33:38;;;;;;;2.33;2.00;;;18.20;98.00;;;;;;5053255;28;20453;-68
2022/05/21 01:36:07;;;;;;;2.37;1.80;;;18.20;98.00;;;;;;5053713;28;20466;-68
2022/05/21 01:38:36;;;;;;;1.87;1.53;;;18.20;98.00;;;;;;5053648;28;20453;-68
2022/05/21 01:41:05;;;;;;;1.57;1.40;;;18.10;98.00;;;;;;5053366;28;20465;-69
2022/05/21 01:46:18;;;;;;;1.60;1.60;;;18.10;98.00;;;;;;5054159;28;20496;-68
2022/05/21 01:48:45;;;;;;;3.90;1.93;;;17.90;98.00;;;;;;5053802;28;20870;-68
2022/05/21 01:51:12;;;;;;;2.13;1.80;;;18.00;98.00;;;;;;5053872;28;21017;-68
2022/05/21 01:53:41;;;;;;;1.87;1.87;;;17.90;98.00;;;;;;5053816;28;20821;-68
2022/05/21 01:56:11;;;;;;;2.67;1.97;;;17.80;98.00;;;;;;5054055;28;20458;-69
2022/05/21 01:58:39;;;;;;;3.23;2.10;;;17.60;98.00;;;;;;5053501;28;20465;-68
2022/05/21 02:01:09;;;;;;;1.67;1.47;;;17.60;98.00;;;;;;5053659;28;20461;-68
2022/05/21 02:03:36;;;;;;;2.70;2.53;;;17.60;98.00;;;;;;5053333;28;20449;-68
2022/05/21 02:06:03;;;;;;;4.27;2.10;;;17.70;98.00;;;;;;5053657;28;20500;-68
2022/05/21 02:08:30;;;;;;;1.80;1.50;;;17.60;98.00;;;;;;5053236;28;20486;-68
2022/05/21 02:10:59;;;;;;;2.47;1.87;;;17.60;98.00;;;;;;5053374;28;20955;-68
2022/05/21 02:13:28;;;;;;;2.23;1.63;;;17.50;98.00;;;;;;5053371;28;20545;-69
2022/05/21 02:15:56;;;;;;;2.00;1.50;;;17.50;98.00;;;;;;5052989;28;20474;-68
2022/05/21 02:18:24;;;;;;;2.17;1.47;;;17.50;98.00;;;;;;5053067;28;20584;-69
2022/05/21 02:20:52;;;;;;;2.13;1.60;;;17.40;98.00;;;;;;5053153;28;20527;-68
2022/05/21 02:23:20;;;;;;;2.03;1.80;;;17.50;98.00;;;;;;5053125;28;20535;-68
2022/05/21 02:25:47;;;;;;;2.40;1.50;;;17.50;98.00;;;;;;5052998;28;20449;-68
2022/05/21 02:28:14;;;;;;;2.17;1.73;;;17.40;98.00;;;;;;5052958;28;20481;-68
2022/05/21 02:30:44;;;;;;;2.57;1.73;;;17.40;98.00;;;;;;5052943;28;20470;-68
2022/05/21 02:33:12;;;;;;;2.00;1.47;;;17.40;98.00;;;;;;5053135;28;20533;-68
2022/05/21 02:35:39;;;;;;;3.60;2.00;;;17.40;98.00;;;;;;5053052;28;20516;-68
2022/05/21 02:40:53;;;;;;;1.63;1.50;;;17.30;98.00;;;;;;5052901;28;20489;-68
2022/05/21 02:43:20;;;;;;;1.93;1.70;;;17.20;98.00;;;;;;5052580;28;20462;-68
2022/05/21 02:45:49;;;;;;;1.90;1.60;;;17.00;98.00;;;;;;5052268;28;20454;-69
2022/05/21 02:48:17;;;;;;;1.87;1.60;;;17.00;98.00;;;;;;5052615;28;20485;-68
2022/05/21 02:50:44;;;;;;;2.03;1.70;;;17.00;98.00;;;;;;5035051;28;20465;-68
2022/05/21 02:53:17;;;;;;;2.07;1.60;;;16.90;98.00;;;;;;5052663;28;20480;-68
2022/05/21 02:55:44;;;;;;;2.20;1.60;;;16.70;98.00;;;;;;5035142;28;20950;-68
2022/05/21 02:58:15;;;;;;;1.40;1.40;;;16.70;98.00;;;;;;5052691;28;20512;-68
2022/05/21 03:00:43;;;;;;;2.47;1.80;;;16.60;98.00;;;;;;5052418;28;20460;-68
2022/05/21 03:03:11;;;;;;;1.60;1.50;;;16.70;98.00;;;;;;5052225;28;20535;-68
2022/05/21 03:05:39;;;;;;;1.70;1.47;;;16.80;98.00;;;;;;5052333;28;21130;-68
2022/05/21 03:10:49;;;;;;;2.87;1.97;;;17.00;98.00;;;;;;5051156;28;20460;-68
2022/05/21 03:13:16;;;;;;;2.43;1.23;;;17.00;98.00;;;;;;5052072;28;20466;-68
2022/05/21 03:15:43;;;;;;;1.93;1.47;;;16.90;98.00;;;;;;5051832;28;20465;-68
2022/05/21 03:18:13;;;;;;;4.90;1.80;;;16.90;98.00;;;;;;5034327;28;20988;-68
2022/05/21 03:20:44;;;;;;;3.00;1.83;;;16.90;98.00;;;;;;5052167;28;20461;-68
2022/05/21 03:23:11;;;;;;;1.47;1.40;;;16.90;98.00;;;;;;5052061;28;20461;-68
2022/05/21 03:25:39;;;;;;;1.60;1.50;;;16.90;98.00;;;;;;5051958;28;20453;-68
2022/05/21 03:28:08;;;;;;;2.30;1.73;;;16.80;98.00;;;;;;5051897;28;20489;-68
2022/05/21 03:30:36;;;;;;;2.60;1.67;;;16.70;98.00;;;;;;5051912;28;20603;-68
2022/05/21 03:33:03;;;;;;;1.50;1.37;;;16.50;98.00;;;;;;5034558;28;20460;-68
2022/05/21 03:35:33;;;;;;;2.33;1.40;;;16.50;98.00;;;;;;5052121;28;20450;-68
2022/05/21 03:38:01;;;;;;;2.00;1.53;;;16.40;98.00;;;;;;5052042;28;20464;-68
2022/05/21 03:40:31;;;;;;;1.90;1.50;;;16.40;98.00;;;;;;5052222;28;21067;-68
2022/05/21 03:42:58;;;;;;;2.57;1.57;;;16.30;98.00;;;;;;5052033;28;20461;-68
2022/05/21 03:45:27;;;;;;;1.87;1.33;;;16.20;98.00;;;;;;5051873;28;20457;-68
2022/05/21 03:47:55;;;;;;;1.60;1.37;;;16.10;98.00;;;;;;5051939;28;20481;-67
2022/05/21 03:50:25;;;;;;;2.63;1.53;;;16.20;98.00;;;;;;5051938;28;20849;-68
2022/05/21 03:52:54;;;;;;;1.60;1.40;;;16.10;98.00;;;;;;5052078;28;20825;-68
2022/05/21 03:55:23;;;;;;;1.93;1.60;;;16.10;98.00;;;;;;5052836;28;20472;-68
2022/05/21 03:57:50;;;;;;;1.63;1.27;;;16.00;98.00;;;;;;5056067;28;20459;-68
2022/05/21 04:00:21;;;;;;;2.13;1.50;;;16.00;98.00;;;;;;5056011;28;20462;-68
2022/05/21 04:02:48;;;;;;;2.10;1.60;;;15.90;98.00;;;;;;5056133;28;20453;-68
2022/05/21 04:05:16;;;;;;;2.43;1.63;;;15.90;98.00;;;;;;5055458;28;20518;-68
2022/05/21 04:07:43;;;;;;;1.80;1.43;;;15.80;98.00;;;;;;5055477;28;20478;-68
2022/05/21 04:10:14;;;;;;;1.70;1.40;;;15.90;98.00;;;;;;5055532;28;20484;-68
2022/05/21 04:12:42;;;;;;;5.13;2.17;;;15.90;98.00;;;;;;5055560;28;20466;-68
2022/05/21 04:15:10;;;;;;;3.33;2.07;;;15.90;98.00;;;;;;5055742;28;20636;-68
2022/05/21 04:17:38;;;;;;;1.53;1.23;;;15.90;98.00;;;;;;5055271;28;20468;-68
2022/05/21 04:20:07;;;;;;;1.70;1.40;;;15.60;98.00;;;;;;5055380;28;20459;-68
2022/05/21 04:22:34;;;;;;;3.83;2.17;;;15.70;98.00;;;;;;5055428;28;20482;-68
2022/05/21 04:25:02;;;;;;;2.57;1.50;;;15.80;98.00;;;;;;5053896;28;20467;-68
2022/05/21 04:27:30;;;;;;;1.87;1.53;;;15.90;98.00;;;;;;5055232;28;20448;-68
2022/05/21 04:29:57;;;;;;;2.87;2.00;;;15.90;98.00;;;;;;5055170;28;20464;-68
2022/05/21 04:32:24;;;;;;;3.90;1.97;;;16.00;98.00;;;;;;5055322;28;20832;-68
2022/05/21 04:34:53;;;;;;;2.33;1.60;;;15.90;98.00;;;;;;5037417;28;20460;-68
2022/05/21 04:37:21;;;;;;;1.57;1.23;;;15.90;98.00;;;;;;5055392;28;20460;-68
2022/05/21 04:39:48;;;;;;;2.20;1.40;;;15.80;98.00;;;;;;5055014;28;20515;-68
2022/05/21 04:42:15;;;;;;;1.60;1.53;;;15.90;98.00;;;;;;5055436;28;20457;-68
2022/05/21 04:44:43;;;;;;;3.37;1.90;;;15.80;98.00;;;;;;5055026;28;20461;-68
2022/05/21 04:47:10;;;;;;;1.67;1.30;;;15.90;98.00;;;;;;5055227;28;20870;-68
2022/05/21 04:49:37;;;;;;;2.83;1.93;;;15.80;98.00;;;;;;5054810;28;20480;-68
2022/05/21 04:52:05;;;;;;;2.73;1.80;;;15.90;98.00;;;;;;5055017;28;20454;-68
2022/05/21 04:54:33;;;;;;;3.00;1.83;;;16.00;98.00;;;;;;5055015;28;20503;-68
2022/05/21 04:57:00;;;;;;;2.23;1.67;;;16.10;98.00;;;;;;5037220;28;20472;-69
2022/05/21 04:59:27;;;;;;;2.40;2.10;;;16.20;98.00;;;;;;5054908;28;20550;-68
2022/05/21 05:01:58;;;;;;;2.30;1.60;;;16.20;98.00;;;;;;5036815;28;20464;-68
2022/05/21 05:04:26;;;;;;;2.60;2.00;;;16.30;98.00;;;;;;5054689;28;20527;-68
2022/05/21 05:06:53;;;;;;;1.60;1.60;;;16.20;98.00;;;;;;5053484;28;20465;-68
2022/05/21 05:09:23;;;;;;;2.47;1.67;;;16.20;98.00;;;;;;5054619;28;20488;-67
2022/05/21 05:11:51;;;;;;;2.10;1.97;;;16.10;98.00;;;;;;5054300;28;20514;-68
2022/05/21 05:14:18;;;;;;;2.20;1.63;;;16.10;98.00;;;;;;5054331;28;20467;-66
2022/05/21 05:16:45;;;;;;;3.97;2.20;;;16.20;98.00;;;;;;5054134;28;20524;-68
2022/05/21 05:19:15;;;;;;;1.90;1.77;;;16.20;98.00;;;;;;5054290;28;20458;-67
2022/05/21 05:21:42;;;;;;;1.97;1.60;;;16.10;98.00;;;;;;5052780;28;20454;-67
2022/05/21 05:24:09;;;;;;;2.70;1.73;;;16.00;98.00;;;;;;5054347;28;20895;-68
2022/05/21 05:26:36;;;;;;;3.17;2.00;;;16.20;98.00;;;;;;5054126;28;20467;-67
2022/05/21 05:29:05;;;;;;;2.00;1.67;;;16.30;98.00;;;;;;5053956;28;20491;-67
2022/05/21 05:31:32;;;;;;;3.07;2.10;;;16.40;98.00;;;;;;5053893;28;20463;-67
2022/05/21 05:34:00;;;;;;;2.33;2.00;;;16.40;98.00;;;;;;5036644;28;20461;-67
2022/05/21 05:36:29;;;;;;;2.57;1.77;;;16.50;98.00;;;;;;5053961;28;20457;-67
2022/05/21 05:38:58;;;;;;;2.67;1.87;;;16.50;98.00;;;;;;5052763;28;20463;-67
2022/05/21 05:41:25;;;;;;;1.90;1.60;;;16.40;98.00;;;;;;5053748;28;20838;-67
2022/05/21 05:43:53;;;;;;;2.83;1.60;;;16.40;98.00;;;;;;5054406;28;20594;-67
2022/05/21 05:46:20;;;;;;;1.60;1.30;;;16.50;98.00;;;;;;5054047;28;20465;-67
2022/05/21 05:48:48;;;;;;;2.07;1.73;;;16.40;98.00;;;;;;5053804;28;20872;-63
2022/05/21 05:51:16;;;;;;;2.60;1.70;;;16.30;98.00;;;;;;5053714;28;20468;-63
2022/05/21 05:53:45;;;;;;;3.23;1.90;;;16.30;98.00;;;;;;5053945;28;20449;-63
2022/05/21 05:56:12;;;;;;;1.50;1.40;;;16.40;98.00;;;;;;5053736;28;20479;-63
2022/05/21 06:01:25;;;;;;;2.17;1.50;;;16.40;98.00;;;;;;5053913;28;20447;-63
2022/05/21 06:03:52;;;;;;;2.50;1.93;;;16.50;98.00;;;;;;5053552;28;20447;-63
2022/05/21 06:06:20;;;;;;;1.83;1.80;;;16.50;98.00;;;;;;5053403;28;20995;-63
2022/05/21 06:08:49;;;;;;;1.30;1.30;;;16.50;98.00;;;;;;5053349;28;20456;-63
2022/05/21 06:11:17;;;;;;;1.80;1.53;;;16.50;98.00;;;;;;5053402;28;20453;-65
2022/05/21 06:13:44;;;;;;;1.63;1.33;;;16.50;98.00;;;;;;5052844;28;20464;-61
2022/05/21 06:16:11;;;;;;;2.23;1.87;;;16.80;98.00;;;;;;5053122;28;20472;-61
2022/05/21 06:18:39;;;;;;;1.40;1.40;;;17.30;98.00;;;;;;5052860;28;20491;-60
2022/05/21 06:21:09;;;;;;;1.90;1.33;;;17.60;98.00;;;;;;5052903;28;20480;-61
2022/05/21 06:23:37;;;;;;;2.37;1.90;;;18.00;98.00;;;;;;5053149;28;20554;-62
2022/05/21 06:26:06;;;;;;;3.40;2.00;;;18.30;98.00;;;;;;5052995;28;20460;-62
2022/05/21 06:28:33;;;;;;;1.77;1.40;;;18.10;98.00;;;;;;5053226;28;20453;-62
2022/05/21 06:31:00;;;;;;;2.00;1.47;;;17.90;98.00;;;;;;5052978;28;20853;-62
2022/05/21 06:33:29;;;;;;;2.30;1.30;;;17.60;98.00;;;;;;5052800;28;20454;-63
2022/05/21 06:36:05;;;;;;;2.43;1.60;;;17.50;98.00;;;;;;5052621;28;20531;-62
2022/05/21 06:38:34;;;;;;;1.80;1.60;;;17.50;98.00;;;;;;5052525;28;20572;-62
2022/05/21 06:41:01;;;;;;;3.13;1.90;;;17.40;98.00;;;;;;5052857;28;20454;-62
2022/05/21 06:43:30;;;;;;;2.43;1.60;;;17.30;98.00;;;;;;5052712;28;20452;-62
2022/05/21 06:45:57;;;;;;;3.70;2.00;;;17.30;98.00;;;;;;5052739;28;20515;-62
2022/05/21 06:48:24;;;;;;;1.70;1.50;;;17.20;98.00;;;;;;5052693;28;20462;-62
2022/05/21 06:50:51;;;;;;;2.07;1.30;;;17.20;98.00;;;;;;5052575;28;20465;-63
2022/05/21 06:53:18;;;;;;;1.57;1.50;;;17.20;98.00;;;;;;5052619;28;21110;-63
2022/05/21 06:55:46;;;;;;;1.87;1.50;;;17.30;98.00;;;;;;5052506;28;20468;-62
2022/05/21 06:58:13;;;;;;;2.07;1.30;;;17.30;98.00;;;;;;5034755;28;20843;-62
2022/05/21 07:00:43;;;;;;;1.63;1.30;;;17.30;98.00;;;;;;5052179;28;20858;-63
2022/05/21 07:03:10;;;;;;;1.70;1.30;;;17.40;98.00;;;;;;5052649;28;20946;-62
2022/05/21 07:08:26;;;;;;;1.90;1.60;;;17.60;98.00;;;;;;5050016;28;20464;-63
2022/05/21 07:10:53;;;;;;;1.57;1.40;;;17.40;98.00;;;;;;5032478;28;20505;-63
2022/05/21 07:13:23;;;;;;;1.60;1.40;;;17.50;98.00;;;;;;5049829;28;20458;-64
2022/05/21 07:15:54;;;;;;;1.47;1.40;;;17.40;98.00;;;;;;5049624;28;20472;-64
2022/05/21 07:18:22;;;;;;;1.57;1.30;;;17.30;98.00;;;;;;5049084;28;20944;-65
2022/05/21 07:20:50;;;;;;;1.50;1.20;;;17.30;98.00;;;;;;5051465;28;20966;-64
2022/05/21 07:23:18;;;;;;;2.17;1.50;;;17.40;98.00;;;;;;5051344;28;20456;-64
2022/05/21 07:25:45;;;;;;;1.60;1.20;;;17.30;98.00;;;;;;5051055;28;21245;-64
2022/05/21 07:28:13;;;;;;;3.03;1.40;;;17.40;98.00;;;;;;5051291;28;20457;-63
2022/05/21 07:30:42;;;;;;;2.27;1.70;;;17.50;98.00;;;;;;5050992;28;21007;-64
2022/05/21 07:33:12;;;;;;;1.70;1.70;;;17.40;98.00;;;;;;5052012;28;20556;-64
2022/05/21 07:35:40;;;;;;;1.20;1.10;;;17.60;98.00;;;;;;5051704;28;20457;-65
2022/05/21 07:38:08;;;;;;;1.20;1.10;;;17.60;98.00;;;;;;5051854;28;20545;-65
2022/05/21 07:40:36;;;;;;;4.40;1.30;;;17.80;98.00;;;;;;5051724;28;20490;-65
2022/05/21 07:43:10;;;;;;;1.40;1.20;;;18.00;98.00;;;;;;5052026;28;20485;-65
2022/05/21 07:45:39;;;;;;;2.50;1.90;;;18.10;97.50;;;;;;5051711;28;20549;-65
2022/05/21 07:48:07;;;;;;;1.20;1.10;;;18.20;97.60;;;;;;5051908;28;20525;-64
2022/05/21 07:50:35;;;;;;;1.50;1.30;;;18.20;97.60;;;;;;5052020;28;20947;-65
2022/05/21 07:53:02;;;;;;;1.47;1.40;;;18.10;97.00;;;;;;5051971;28;20465;-65
2022/05/21 07:55:29;;;;;;;1.70;1.40;;;18.20;98.00;;;;;;5051684;28;20461;-65
2022/05/21 07:57:57;;;;;;;1.57;1.33;;;18.30;98.00;;;;;;5051878;28;20469;-65
2022/05/21 08:00:24;;;;;;;2.80;1.33;;;18.40;97.80;;;;;;5051563;28;20521;-65
2022/05/21 08:02:51;;;;;;;1.53;1.20;;;18.60;96.30;;;;;;5051917;28;20453;-65
2022/05/21 08:05:18;;;;;;;1.50;1.20;;;18.70;95.90;;;;;;5051706;28;21157;-65
2022/05/21 08:07:50;;;;;;;1.33;1.30;;;18.70;93.70;;;;;;5051804;28;20458;-65
2022/05/21 08:10:17;;;;;;;1.70;1.30;;;18.50;93.00;;;;;;5051444;28;20457;-65
2022/05/21 08:12:45;;;;;;;1.40;1.20;;;18.40;96.50;;;;;;5051648;28;20465;-65
2022/05/21 08:15:19;;;;;;;1.20;1.20;;;18.30;94.10;;;;;;5051542;28;20449;-64
2022/05/21 08:17:46;;;;;;;1.70;1.50;;;18.30;95.60;;;;;;5051252;28;20485;-65
2022/05/21 08:20:14;;;;;;;2.43;1.30;;;18.40;97.20;;;;;;5051255;28;20482;-65
2022/05/21 08:28:14;;;;;;;1.90;1.40;;;18.80;96.40;;;;;;5051419;28;20449;-65
2022/05/21 08:30:41;;;;;;;1.40;1.20;;;18.90;95.80;;;;;;5051378;28;20468;-64
2022/05/21 08:33:09;;;;;;;1.77;1.30;;;19.10;95.60;;;;;;5051486;28;21023;-64
2022/05/21 08:35:39;;;;;;;1.40;1.27;;;19.20;97.20;;;;;;5051343;28;20493;-65
2022/05/21 08:38:06;;;;;;;1.93;1.40;;;19.40;96.80;;;;;;5051296;28;20568;-68
2022/05/21 08:40:43;;;;;;;2.00;1.43;;;19.20;98.00;;;;;;5050933;28;20485;-58
2022/05/21 08:43:20;;;;;;;1.27;1.20;;;19.50;96.40;;;;;;5053616;28;20834;-64
2022/05/21 08:46:00;;;;;;;1.30;1.20;;;19.90;98.00;;;;;;5055042;28;20545;-62
2022/05/21 08:48:29;;;;;;;1.30;1.10;;;20.30;96.70;;;;;;5054920;28;20457;-62
2022/05/21 08:50:56;;;;;;;1.60;1.30;;;20.40;93.00;;;;;;5054878;28;20450;-62
2022/05/21 08:53:29;;;;;;;1.70;1.30;;;20.50;91.70;;;;;;5054792;28;20454;-62
2022/05/21 08:56:02;;;;;;;1.40;1.30;;;20.40;90.80;;;;;;5054870;28;20935;-59
2022/05/21 08:58:35;;;;;;;1.20;1.10;;;20.20;89.60;;;;;;5054837;28;20453;-63
2022/05/21 09:01:02;;;;;;;1.30;1.27;;;20.10;89.40;;;;;;5054802;28;20987;-61
2022/05/21 09:03:30;;;;;;;1.30;1.13;;;20.10;91.40;;;;;;5054946;28;20453;-61
2022/05/21 09:06:09;;;;;;;1.20;1.10;;;20.00;92.60;;;;;;5054611;28;20458;-62
2022/05/21 09:08:42;;;;;;;1.57;1.20;;;19.90;91.10;;;;;;5054653;28;20461;-61
2022/05/21 09:11:16;;;;;;;1.30;1.10;;;20.10;94.70;;;;;;5054534;28;20454;-60
2022/05/21 09:13:48;;;;;;;1.30;1.20;;;20.20;94.80;;;;;;5054005;28;20457;-61
2022/05/21 09:19:04;;;;;;;1.50;1.20;;;20.30;89.80;;;;;;5054639;28;20449;-64
2022/05/21 09:21:34;;;;;;;1.70;1.40;;;20.40;90.80;;;;;;5054041;28;20462;-61
2022/05/21 09:24:05;;;;;;;2.67;1.17;;;20.40;90.80;;;;;;5054295;28;20496;-61
2022/05/21 09:26:47;;;;;;;1.20;1.20;;;20.70;92.20;;;;;;5054209;28;20536;-61
2022/05/21 09:29:19;;;;;;;1.60;1.17;;;20.60;90.20;;;;;;5054467;28;20458;-63
2022/05/21 09:31:47;;;;;;;1.20;1.00;;;20.80;92.90;;;;;;5054185;28;20503;-61
2022/05/21 09:34:23;;;;;;;1.70;1.20;;;21.00;92.10;;;;;;5054201;28;20461;-60
2022/05/21 09:36:50;;;;;;;2.00;1.30;;;21.30;94.00;;;;;;5053931;28;20461;-61
2022/05/21 09:39:31;;;;;;;1.40;1.30;;;21.60;90.20;;;;;;5053971;28;20454;-61
2022/05/21 09:45:21;;;;;;;1.30;1.20;;;21.80;91.50;;;;;;5054023;28;20489;-62
2022/05/21 09:47:47;;;;;;;1.83;1.60;;;21.70;87.00;;;;;;5054135;28;20457;-61
2022/05/21 09:50:25;;;;;;;1.90;1.43;;;21.50;87.40;;;;;;5053995;28;21020;-61
2022/05/21 09:52:53;;;;;;;1.70;1.30;;;21.50;90.70;;;;;;5053522;28;20552;-61
2022/05/21 09:55:24;;;;;;;1.20;1.00;;;21.50;91.90;;;;;;5036454;28;20465;-61
2022/05/21 09:57:54;;;;;;;1.93;1.27;;;21.60;86.50;;;;;;5053762;28;20462;-61
2022/05/21 10:00:25;;;;;;;1.50;1.20;;;21.60;88.40;;;;;;5053502;28;20496;-61
2022/05/21 10:02:54;;;;;;;1.20;1.20;;;21.80;91.60;;;;;;5054164;28;20811;-61
2022/05/21 10:05:25;;;;;;;1.67;1.30;;;22.00;89.60;;;;;;5053617;28;20600;-61
2022/05/21 10:11:00;;;;;;;1.60;1.47;;;21.90;85.70;;;;;;5038226;28;20441;-62
2022/05/21 10:13:36;;;;;;;1.50;1.20;;;21.90;88.70;;;;;;5053384;28;20964;-62
2022/05/21 10:16:16;;;;;;;1.43;1.37;;;22.10;91.40;;;;;;5053029;28;20952;-62
2022/05/21 10:18:48;;;;;;;1.40;1.30;;;22.20;87.80;;;;;;5053190;28;20956;-62
2022/05/21 10:21:25;;;;;;;1.60;1.40;;;22.30;88.20;;;;;;5035053;28;21162;-62
2022/05/21 10:23:56;;;;;;;1.30;1.13;;;22.30;89.80;;;;;;5053033;28;20472;-62
2022/05/21 10:26:50;;;;;;;2.07;1.40;;;22.40;88.30;;;;;;5052565;28;20449;-62
2022/05/21 10:29:45;;;;;;;1.47;1.43;;;22.50;88.90;;;;;;5050047;28;20458;-62
2022/05/21 10:32:27;;;;;;;1.50;1.27;;;22.50;88.10;;;;;;5049858;28;20482;-62
2022/05/21 10:35:03;;;;;;;1.70;1.60;;;22.50;86.40;;;;;;5052241;28;20523;-62
2022/05/21 10:37:53;;;;;;;1.70;1.30;;;22.40;88.90;;;;;;5052080;28;20453;-63
2022/05/21 10:40:29;;;;;;;1.40;1.20;;;22.30;86.00;;;;;;5052666;28;20865;-60
2022/05/21 10:43:32;;;;;;;1.30;1.20;;;22.30;87.30;;;;;;5053143;28;20927;-60
2022/05/21 10:46:13;;;;;;;1.30;1.30;;;22.50;89.10;;;;;;5052916;28;20943;-62
2022/05/21 10:49:03;;;;;;;1.60;1.30;;;22.80;89.90;;;;;;5052764;28;20453;-61
2022/05/21 10:51:34;;;;;;;1.60;1.40;;;23.10;90.00;;;;;;5052677;28;20458;-62
2022/05/21 10:54:28;;;;;;;1.70;1.50;;;23.20;87.30;;;;;;5052602;28;20500;-61
2022/05/21 10:57:13;;;;;;;1.77;1.57;;;23.40;86.40;;;;;;5052613;28;20458;-61
2022/05/21 11:00:02;;;;;;;1.87;1.50;;;23.30;86.40;;;;;;5052547;28;20458;-62
2022/05/21 11:03:17;;;;;;;2.30;1.30;;;23.40;85.00;;;;;;5052581;28;20490;-61
2022/05/21 11:06:04;;;;;;;1.90;1.30;;;23.60;85.60;;;;;;5051839;28;20457;-61
2022/05/21 11:08:38;;;;;;;1.70;1.40;;;23.80;84.10;;;;;;5052350;28;20536;-61
2022/05/21 11:11:10;;;;;;;2.07;1.80;;;23.50;82.30;;;;;;5052276;28;21177;-61
2022/05/21 11:13:41;;;;;;;2.47;1.63;;;23.30;85.00;;;;;;5052257;28;20469;-63
2022/05/21 11:16:14;;;;;;;2.10;1.33;;;23.40;83.80;;;;;;5052007;28;20978;-62
2022/05/21 11:18:50;;;;;;;1.50;1.40;;;23.40;83.80;;;;;;5052123;28;20849;-62
2022/05/21 11:21:23;;;;;;;1.57;1.30;;;23.20;85.20;;;;;;5051859;28;20485;-62
2022/05/21 11:23:57;;;;;;;1.47;1.30;;;23.60;85.40;;;;;;5052057;28;20466;-62
2022/05/21 11:26:34;;;;;;;1.53;1.20;;;23.70;87.10;;;;;;5051954;28;20461;-62
2022/05/21 11:29:07;;;;;;;1.87;1.30;;;24.10;86.30;;;;;;5034571;28;20469;-62
2022/05/21 11:37:21;;;;;;;1.30;1.27;;;24.30;81.10;;;;;;5052215;28;20448;-62
2022/05/21 11:39:50;;;;;;;1.50;1.30;;;24.60;83.20;;;;;;5051830;28;20952;-62
2022/05/21 11:42:22;;;;;;;1.50;1.40;;;24.70;80.00;;;;;;5052017;28;20454;-62
2022/05/21 11:44:58;;;;;;;1.60;1.40;;;24.80;82.80;;;;;;5051981;28;20458;-62
2022/05/21 11:47:45;;;;;;;1.83;1.27;;;24.70;80.00;;;;;;5035024;28;20453;-62
2022/05/21 11:50:27;;;;;;;1.40;1.27;;;24.90;83.00;;;;;;5052115;28;20527;-62
2022/05/21 11:53:05;;;;;;;2.17;1.67;;;25.20;81.30;;;;;;5051967;28;20523;-62
2022/05/21 11:55:58;;;;;;;1.57;1.30;;;25.40;80.80;;;;;;5035720;28;20461;-62
2022/05/21 11:58:27;;;;;;;1.73;1.40;;;25.50;81.20;;;;;;5051983;28;20871;-62
2022/05/21 12:00:55;;;;;;;1.57;1.53;;;25.50;80.00;;;;;;5051905;28;20526;-62
2022/05/21 12:03:25;;;;;;;1.30;1.20;;;25.80;79.60;;;;;;5052118;28;20560;-62
2022/05/21 12:06:13;;;;;;;2.50;1.60;;;26.10;78.50;;;;;;5051793;28;20450;-62
2022/05/21 12:08:49;;;;;;;1.40;1.30;;;26.20;80.50;;;;;;5050947;28;20454;-62
2022/05/21 12:11:43;;;;;;;1.70;1.47;;;26.20;76.90;;;;;;5051861;28;21054;-62
2022/05/21 12:14:28;;;;;;;1.60;1.40;;;26.20;76.70;;;;;;5051330;28;20457;-62
2022/05/21 12:16:59;;;;;;;2.03;1.30;;;26.30;78.60;;;;;;5053427;28;20553;-62
2022/05/21 12:20:01;;;;;;;1.47;1.23;;;26.30;77.60;;;;;;5055356;28;20457;-62
2022/05/21 12:22:54;;;;;;;1.83;1.50;;;26.40;76.00;;;;;;5055335;28;20461;-62
2022/05/21 12:25:58;;;;;;;1.77;1.50;;;26.70;79.10;;;;;;5044802;28;20456;-62
2022/05/21 12:28:45;;;;;;;3.30;1.63;;;26.30;75.40;;;;;;5055303;28;20481;-62
2022/05/21 12:31:21;;;;;;;1.40;1.30;;;26.40;78.70;;;;;;5055419;28;20449;-62
2022/05/21 12:34:07;;;;;;;1.30;1.27;;;26.80;80.30;;;;;;5055153;28;20475;-62
2022/05/21 12:36:46;;;;;;;1.50;1.30;;;27.00;78.50;;;;;;5054556;28;20504;-63
2022/05/21 12:39:18;;;;;;;1.53;1.40;;;26.70;76.40;;;;;;5055193;28;20461;-63
2022/05/21 12:41:50;;;;;;;1.30;1.20;;;26.40;76.50;;;;;;5054965;28;20485;-63
2022/05/21 12:44:40;;;;;;;4.03;1.37;;;25.90;75.80;;;;;;5054799;28;20449;-63
2022/05/21 12:47:11;;;;;;;1.70;1.53;;;25.70;79.00;;;;;;5054969;28;20507;-63
2022/05/21 12:49:47;;;;;;;1.50;1.33;;;26.20;78.80;;;;;;5054833;28;20461;-62
2022/05/21 12:52:24;;;;;;;1.90;1.40;;;26.80;80.30;;;;;;5037150;28;20466;-62
2022/05/21 12:55:25;;;;;;;1.90;1.50;;;27.20;75.80;;;;;;5054342;28;20947;-62
2022/05/21 12:57:54;;;;;;;1.40;1.40;;;27.50;75.60;;;;;;5054650;28;21019;-62
2022/05/21 13:00:23;;;;;;;1.50;1.40;;;27.70;75.40;;;;;;5036714;28;21131;-62
2022/05/21 13:02:53;;;;;;;1.93;1.47;;;27.70;76.40;;;;;;5054652;28;20484;-62
2022/05/21 13:05:23;;;;;;;1.77;1.50;;;27.70;76.10;;;;;;5054628;28;20450;-62
2022/05/21 13:07:53;;;;;;;4.23;1.40;;;27.90;74.60;;;;;;5036941;28;21045;-62
2022/05/21 13:10:24;;;;;;;1.60;1.20;;;28.00;73.50;;;;;;5036848;28;20465;-63
2022/05/21 13:12:55;;;;;;;2.57;1.70;;;28.10;73.70;;;;;;5054647;28;20458;-62
2022/05/21 13:15:26;;;;;;;1.80;1.57;;;27.90;72.70;;;;;;5053855;28;20811;-63
2022/05/21 13:18:05;;;;;;;1.70;1.40;;;27.60;71.10;;;;;;5053866;28;20545;-62
2022/05/21 13:20:40;;;;;;;1.97;1.50;;;27.00;71.80;;;;;;5054232;28;20481;-62
2022/05/21 13:23:40;;;;;;;1.80;1.40;;;27.00;72.90;;;;;;5054636;28;20453;-62
2022/05/21 13:26:15;;;;;;;1.70;1.40;;;26.80;72.30;;;;;;5054199;28;20929;-63
2022/05/21 13:28:42;;;;;;;1.30;1.20;;;26.50;74.80;;;;;;5053441;28;20464;-61
2022/05/21 13:31:16;;;;;;;5.10;1.60;;;26.20;78.60;;;;;;5054204;28;20492;-62
2022/05/21 13:33:47;;;;;;;1.80;1.50;;;25.80;74.80;;;;;;5054110;28;20454;-62
2022/05/21 13:36:17;;;;;;;1.67;1.30;;;25.50;76.40;;;;;;5054330;28;20465;-63
2022/05/21 13:38:47;;;;;;;2.90;1.70;;;25.60;78.40;;;;;;5053934;28;20466;-62
2022/05/21 13:41:28;;;;;;;1.77;1.40;;;25.90;76.50;;;;;;5053917;28;20482;-62
2022/05/21 13:43:56;;;;;;;7.73;1.93;;;26.00;77.40;;;;;;5053923;28;20465;-62
2022/05/21 13:46:24;;;;;;;1.80;1.50;;;26.50;76.00;;;;;;5053917;28;20454;-62